sensor_id;sensor_type;location;lat;lon;timestamp;P1;durP1;ratioP1;P2;durP2;ratioP2
69026;SDS011;56080;47.594;19.116;2023-03-11T00:05:20;2.30;;;0.60;;
69026;SDS011;56080;47.594;19.116;2023-03-11T00:15:18;1.40;;;0.40;;
69026;SDS011;56080;47.594;19.116;2023-03-11T00:25:20;1.50;;;0.40;;
69026;SDS011;56080;47.594;19.116;2023-03-11T00:35:23;2.30;;;0.50;;
69026;SDS011;56080;47.594;19.116;2023-03-11T00:45:21;2.00;;;0.40;;
69026;SDS011;56080;47.594;19.116;2023-03-11T00:55:24;1.90;;;0.40;;
69026;SDS011;56080;47.594;19.116;2023-03-11T01:05:24;1.70;;;0.50;;
69026;SDS011;56080;47.594;19.116;2023-03-11T01:25:25;1.80;;;0.50;;
69026;SDS011;56080;47.594;19.116;2023-03-11T01:35:26;2.40;;;0.50;;
69026;SDS011;56080;47.594;19.116;2023-03-11T01:55:27;2.30;;;0.50;;
69026;SDS011;56080;47.594;19.116;2023-03-11T02:05:28;2.10;;;0.60;;
69026;SDS011;56080;47.594;19.116;2023-03-11T02:15:28;2.20;;;0.60;;
69026;SDS011;56080;47.594;19.116;2023-03-11T02:35:30;2.40;;;0.50;;
69026;SDS011;56080;47.594;19.116;2023-03-11T02:43:57;2.40;;;0.50;;
69026;SDS011;56080;47.594;19.116;2023-03-11T02:55:32;1.40;;;0.40;;
69026;SDS011;56080;47.594;19.116;2023-03-11T03:05:32;2.50;;;0.50;;
69026;SDS011;56080;47.594;19.116;2023-03-11T03:15:33;2.40;;;0.60;;
69026;SDS011;56080;47.594;19.116;2023-03-11T03:35:34;2.30;;;0.70;;
69026;SDS011;56080;47.594;19.116;2023-03-11T03:45:35;2.00;;;0.60;;
69026;SDS011;56080;47.594;19.116;2023-03-11T03:55:36;2.90;;;0.60;;
69026;SDS011;56080;47.594;19.116;2023-03-11T04:05:37;2.80;;;0.70;;
69026;SDS011;56080;47.594;19.116;2023-03-11T04:15:37;2.00;;;0.50;;
69026;SDS011;56080;47.594;19.116;2023-03-11T04:35:39;4.10;;;0.70;;
69026;SDS011;56080;47.594;19.116;2023-03-11T04:45:40;3.20;;;0.70;;
69026;SDS011;56080;47.594;19.116;2023-03-11T04:55:40;2.20;;;0.60;;
69026;SDS011;56080;47.594;19.116;2023-03-11T05:05:41;4.30;;;0.80;;
69026;SDS011;56080;47.594;19.116;2023-03-11T05:15:43;2.20;;;0.60;;
69026;SDS011;56080;47.594;19.116;2023-03-11T05:25:42;2.30;;;0.70;;
69026;SDS011;56080;47.594;19.116;2023-03-11T05:35:43;3.00;;;0.70;;
69026;SDS011;56080;47.594;19.116;2023-03-11T05:45:44;2.60;;;0.80;;
69026;SDS011;56080;47.594;19.116;2023-03-11T05:55:44;2.10;;;0.60;;
69026;SDS011;56080;47.594;19.116;2023-03-11T06:05:52;1.90;;;0.60;;
69026;SDS011;56080;47.594;19.116;2023-03-11T06:15:46;2.30;;;0.70;;
69026;SDS011;56080;47.594;19.116;2023-03-11T06:26:03;2.10;;;0.60;;
69026;SDS011;56080;47.594;19.116;2023-03-11T06:35:54;2.30;;;0.60;;
69026;SDS011;56080;47.594;19.116;2023-03-11T06:45:48;2.60;;;0.70;;
69026;SDS011;56080;47.594;19.116;2023-03-11T07:05:49;2.70;;;0.70;;
69026;SDS011;56080;47.594;19.116;2023-03-11T07:15:50;3.20;;;0.70;;
69026;SDS011;56080;47.594;19.116;2023-03-11T07:25:54;2.20;;;0.60;;
69026;SDS011;56080;47.594;19.116;2023-03-11T07:35:50;2.00;;;0.60;;
69026;SDS011;56080;47.594;19.116;2023-03-11T07:45:50;4.00;;;1.30;;
69026;SDS011;56080;47.594;19.116;2023-03-11T07:55:55;3.00;;;0.70;;
69026;SDS011;56080;47.594;19.116;2023-03-11T08:15:52;3.90;;;0.90;;
69026;SDS011;56080;47.594;19.116;2023-03-11T08:25:53;2.90;;;0.80;;
69026;SDS011;56080;47.594;19.116;2023-03-11T08:35:54;3.10;;;0.80;;
69026;SDS011;56080;47.594;19.116;2023-03-11T08:45:54;3.60;;;0.80;;
69026;SDS011;56080;47.594;19.116;2023-03-11T08:55:55;2.30;;;0.70;;
69026;SDS011;56080;47.594;19.116;2023-03-11T09:05:56;3.10;;;0.70;;
69026;SDS011;56080;47.594;19.116;2023-03-11T09:15:57;4.60;;;1.60;;
69026;SDS011;56080;47.594;19.116;2023-03-11T09:25:56;3.10;;;0.70;;
69026;SDS011;56080;47.594;19.116;2023-03-11T09:35:57;3.70;;;0.80;;
69026;SDS011;56080;47.594;19.116;2023-03-11T09:46:10;4.20;;;0.90;;
69026;SDS011;56080;47.594;19.116;2023-03-11T09:56:02;3.40;;;0.80;;
69026;SDS011;56080;47.594;19.116;2023-03-11T10:06:02;4.10;;;1.00;;
69026;SDS011;56080;47.594;19.116;2023-03-11T10:26:11;4.20;;;0.90;;
69026;SDS011;56080;47.594;19.116;2023-03-11T10:36:04;2.70;;;0.80;;
69026;SDS011;56080;47.594;19.116;2023-03-11T10:46:04;2.30;;;0.60;;
69026;SDS011;56080;47.594;19.116;2023-03-11T10:56:03;2.70;;;0.60;;
69026;SDS011;56080;47.594;19.116;2023-03-11T11:06:16;2.80;;;0.80;;
69026;SDS011;56080;47.594;19.116;2023-03-11T11:16:15;2.90;;;0.90;;
69026;SDS011;56080;47.594;19.116;2023-03-11T11:36:11;3.40;;;0.90;;
69026;SDS011;56080;47.594;19.116;2023-03-11T11:46:11;3.30;;;1.00;;
69026;SDS011;56080;47.594;19.116;2023-03-11T11:56:06;2.90;;;0.90;;
69026;SDS011;56080;47.594;19.116;2023-03-11T12:06:23;3.30;;;1.00;;
69026;SDS011;56080;47.594;19.116;2023-03-11T12:26:23;5.50;;;1.40;;
69026;SDS011;56080;47.594;19.116;2023-03-11T12:36:34;4.10;;;1.00;;
69026;SDS011;56080;47.594;19.116;2023-03-11T12:46:13;3.00;;;1.00;;
69026;SDS011;56080;47.594;19.116;2023-03-11T13:06:14;3.90;;;1.00;;
69026;SDS011;56080;47.594;19.116;2023-03-11T13:26:36;3.00;;;1.20;;
69026;SDS011;56080;47.594;19.116;2023-03-11T13:46:25;3.40;;;1.30;;
69026;SDS011;56080;47.594;19.116;2023-03-11T13:56:15;3.00;;;1.00;;
69026;SDS011;56080;47.594;19.116;2023-03-11T14:06:17;4.30;;;1.20;;
69026;SDS011;56080;47.594;19.116;2023-03-11T14:16:34;4.50;;;1.70;;
69026;SDS011;56080;47.594;19.116;2023-03-11T14:26:18;3.60;;;1.20;;
69026;SDS011;56080;47.594;19.116;2023-03-11T14:36:20;4.00;;;1.30;;
69026;SDS011;56080;47.594;19.116;2023-03-11T14:46:18;3.80;;;1.40;;
69026;SDS011;56080;47.594;19.116;2023-03-11T14:56:23;4.20;;;1.80;;
69026;SDS011;56080;47.594;19.116;2023-03-11T15:06:27;4.50;;;1.40;;
69026;SDS011;56080;47.594;19.116;2023-03-11T15:16:30;4.10;;;1.60;;
69026;SDS011;56080;47.594;19.116;2023-03-11T15:26:28;5.00;;;1.90;;
69026;SDS011;56080;47.594;19.116;2023-03-11T15:36:29;4.20;;;1.70;;
69026;SDS011;56080;47.594;19.116;2023-03-11T15:56:23;4.30;;;1.40;;
69026;SDS011;56080;47.594;19.116;2023-03-11T16:06:20;4.40;;;1.70;;
69026;SDS011;56080;47.594;19.116;2023-03-11T16:16:25;3.70;;;1.50;;
69026;SDS011;56080;47.594;19.116;2023-03-11T16:26:22;4.50;;;1.70;;
69026;SDS011;56080;47.594;19.116;2023-03-11T16:36:22;3.40;;;1.30;;
69026;SDS011;56080;47.594;19.116;2023-03-11T16:46:23;3.50;;;1.20;;
69026;SDS011;56080;47.594;19.116;2023-03-11T16:56:23;4.20;;;1.40;;
69026;SDS011;56080;47.594;19.116;2023-03-11T17:06:23;3.50;;;1.30;;
69026;SDS011;56080;47.594;19.116;2023-03-11T17:16:24;3.70;;;1.40;;
69026;SDS011;56080;47.594;19.116;2023-03-11T17:26:25;4.20;;;1.60;;
69026;SDS011;56080;47.594;19.116;2023-03-11T17:36:27;3.70;;;1.40;;
69026;SDS011;56080;47.594;19.116;2023-03-11T17:46:27;4.90;;;1.50;;
69026;SDS011;56080;47.594;19.116;2023-03-11T17:56:27;4.30;;;1.70;;
69026;SDS011;56080;47.594;19.116;2023-03-11T18:06:27;4.20;;;1.80;;
69026;SDS011;56080;47.594;19.116;2023-03-11T18:16:30;5.10;;;2.10;;
69026;SDS011;56080;47.594;19.116;2023-03-11T18:26:28;4.10;;;2.00;;
69026;SDS011;56080;47.594;19.116;2023-03-11T18:36:35;5.00;;;2.30;;
69026;SDS011;56080;47.594;19.116;2023-03-11T18:46:30;5.20;;;2.30;;
69026;SDS011;56080;47.594;19.116;2023-03-11T18:56:30;5.00;;;2.00;;
69026;SDS011;56080;47.594;19.116;2023-03-11T19:06:31;4.70;;;2.00;;
69026;SDS011;56080;47.594;19.116;2023-03-11T19:16:32;4.80;;;2.10;;
69026;SDS011;56080;47.594;19.116;2023-03-11T19:26:40;5.60;;;2.20;;
69026;SDS011;56080;47.594;19.116;2023-03-11T19:36:31;4.60;;;2.10;;
69026;SDS011;56080;47.594;19.116;2023-03-11T19:46:32;4.80;;;2.10;;
69026;SDS011;56080;47.594;19.116;2023-03-11T19:56:32;4.90;;;2.10;;
69026;SDS011;56080;47.594;19.116;2023-03-11T20:06:33;5.20;;;2.10;;
69026;SDS011;56080;47.594;19.116;2023-03-11T20:16:33;6.10;;;2.40;;
69026;SDS011;56080;47.594;19.116;2023-03-11T20:26:34;4.70;;;2.30;;
69026;SDS011;56080;47.594;19.116;2023-03-11T20:36:38;4.40;;;1.90;;
69026;SDS011;56080;47.594;19.116;2023-03-11T20:46:34;4.90;;;2.30;;
69026;SDS011;56080;47.594;19.116;2023-03-11T20:56:35;5.10;;;2.20;;
69026;SDS011;56080;47.594;19.116;2023-03-11T21:06:36;5.50;;;2.50;;
69026;SDS011;56080;47.594;19.116;2023-03-11T21:16:36;4.60;;;2.20;;
69026;SDS011;56080;47.594;19.116;2023-03-11T21:26:36;5.60;;;2.40;;
69026;SDS011;56080;47.594;19.116;2023-03-11T21:36:35;4.90;;;2.10;;
69026;SDS011;56080;47.594;19.116;2023-03-11T21:56:35;5.20;;;2.30;;
69026;SDS011;56080;47.594;19.116;2023-03-11T22:06:35;5.10;;;2.30;;
69026;SDS011;56080;47.594;19.116;2023-03-11T22:16:36;5.50;;;2.40;;
69026;SDS011;56080;47.594;19.116;2023-03-11T22:26:37;5.80;;;2.40;;
69026;SDS011;56080;47.594;19.116;2023-03-11T22:36:36;4.80;;;2.40;;
69026;SDS011;56080;47.594;19.116;2023-03-11T22:46:38;5.50;;;2.50;;
69026;SDS011;56080;47.594;19.116;2023-03-11T22:56:37;4.70;;;1.90;;
69026;SDS011;56080;47.594;19.116;2023-03-11T23:06:37;5.10;;;2.30;;
69026;SDS011;56080;47.594;19.116;2023-03-11T23:16:38;5.40;;;2.60;;
69026;SDS011;56080;47.594;19.116;2023-03-11T23:26:38;5.00;;;2.30;;
69026;SDS011;56080;47.594;19.116;2023-03-11T23:36:40;5.70;;;2.40;;
69026;SDS011;56080;47.594;19.116;2023-03-11T23:46:38;5.80;;;2.40;;
